createdAt,value
2022-08-09T00:00:11.234Z,55.42
2022-08-09T00:02:48.965Z,55.66
2022-08-09T00:06:18.684Z,55.49
2022-08-09T00:08:10.036Z,55.73
2022-08-09T00:10:38.718Z,56.02
2022-08-09T00:13:16.803Z,56.20
2022-08-09T00:15:57.589Z,56.05
2022-08-09T00:18:26.364Z,56.11
2022-08-09T00:20:55.890Z,55.86
2022-08-09T00:23:54.724Z,56.28
2022-08-09T00:26:11.353Z,56.24
2022-08-09T00:28:38.729Z,56.28
2022-08-09T00:31:30.751Z,56.21
2022-08-09T00:33:54.684Z,56.35
2022-08-09T00:36:22.508Z,56.55
2022-08-09T00:38:56.924Z,56.63
2022-08-09T00:44:14.427Z,56.94
2022-08-09T00:44:26.343Z,56.54
2022-08-09T00:47:05.044Z,57.13
2022-08-09T00:49:36.916Z,57.41
2022-08-09T00:52:17.695Z,57.33
2022-08-09T00:54:46.021Z,57.25
2022-08-09T00:57:12.839Z,58.27
2022-08-09T00:59:47.222Z,57.52
2022-08-09T01:02:22.540Z,57.59
2022-08-09T01:04:58.102Z,57.81
2022-08-09T01:08:00.057Z,58.02
2022-08-09T01:11:20.144Z,58.95
2022-08-09T01:14:03.807Z,58.26
2022-08-09T01:16:35.910Z,58.50
2022-08-09T01:19:39.832Z,58.77
2022-08-09T01:22:45.703Z,59.14
2022-08-09T01:25:33.159Z,58.95
2022-08-09T01:28:10.003Z,58.96
2022-08-09T01:30:51.803Z,58.50
2022-08-09T01:33:23.864Z,58.79
2022-08-09T01:36:07.879Z,58.87
2022-08-09T01:38:44.271Z,58.65
2022-08-09T01:41:18.201Z,58.67
2022-08-09T01:43:55.808Z,59.00
2022-08-09T01:46:29.582Z,58.54
2022-08-09T01:49:10.249Z,58.81
2022-08-09T01:52:07.366Z,59.37
2022-08-09T01:54:42.075Z,59.18
2022-08-09T01:57:20.727Z,59.11
2022-08-09T01:59:53.648Z,59.43
2022-08-09T02:02:31.086Z,59.45
2022-08-09T02:05:15.772Z,59.18
2022-08-09T02:08:36.109Z,59.07
2022-08-09T02:10:50.914Z,59.69
2022-08-09T02:13:21.938Z,59.29
2022-08-09T02:15:56.459Z,59.76
2022-08-09T02:18:27.063Z,59.57
2022-08-09T02:21:00.305Z,59.37
2022-08-09T02:23:40.012Z,59.95
2022-08-09T02:26:24.953Z,59.71
2022-08-09T02:28:57.724Z,60.09
2022-08-09T02:31:35.659Z,60.18
2022-08-09T02:34:13.817Z,60.04
2022-08-09T02:36:56.417Z,60.17
2022-08-09T02:39:33.497Z,60.17
2022-08-09T02:42:05.651Z,60.32
2022-08-09T02:44:49.379Z,60.62
2022-08-09T02:47:20.293Z,60.31
2022-08-09T02:50:02.116Z,60.49
2022-08-09T02:52:39.738Z,60.70
2022-08-09T02:55:15.214Z,60.58
2022-08-09T02:58:00.052Z,60.80
2022-08-09T03:00:39.521Z,60.77
2022-08-09T03:04:12.514Z,60.72
2022-08-09T03:06:15.727Z,61.14
2022-08-09T03:08:47.510Z,61.01
2022-08-09T03:11:29.943Z,61.48
2022-08-09T03:14:07.537Z,61.13
2022-08-09T03:16:41.756Z,61.06
2022-08-09T03:19:16.699Z,61.19
2022-08-09T03:22:03.355Z,61.08
2022-08-09T03:24:42.224Z,61.15
2022-08-09T03:27:21.626Z,61.30
2022-08-09T03:29:57.681Z,61.49
2022-08-09T03:32:31.385Z,61.59
2022-08-09T03:34:59.991Z,61.41
2022-08-09T03:37:56.567Z,61.41
2022-08-09T03:40:17.021Z,61.05
2022-08-09T03:42:45.602Z,61.58
2022-08-09T03:45:13.548Z,61.28
2022-08-09T03:47:46.347Z,61.15
2022-08-09T03:50:27.775Z,61.33
2022-08-09T03:53:03.217Z,61.30
2022-08-09T03:55:30.248Z,61.30
2022-08-09T03:58:14.754Z,61.35
2022-08-09T04:00:49.415Z,61.50
2022-08-09T04:03:24.618Z,61.83
2022-08-09T04:06:04.437Z,61.56
2022-08-09T04:08:32.398Z,61.99
2022-08-09T04:11:01.497Z,62.94
2022-08-09T04:14:36.666Z,61.96
2022-08-09T04:16:19.560Z,61.96
2022-08-09T04:18:47.901Z,61.98
2022-08-09T04:21:17.852Z,61.75
2022-08-09T04:23:53.812Z,61.60
2022-08-09T04:26:23.394Z,61.86
2022-08-09T04:28:50.385Z,61.85
2022-08-09T04:31:17.144Z,61.87
2022-08-09T04:33:47.198Z,62.04
2022-08-09T04:36:19.484Z,62.03
2022-08-09T04:38:46.695Z,61.73
2022-08-09T04:41:14.287Z,62.03
2022-08-09T04:43:46.635Z,62.05
2022-08-09T04:46:38.228Z,62.03
2022-08-09T04:49:14.589Z,61.86
2022-08-09T04:51:41.971Z,61.94
2022-08-09T04:54:08.604Z,61.88
2022-08-09T04:56:36.982Z,62.50
2022-08-09T04:59:13.012Z,61.56
2022-08-09T05:01:42.410Z,61.65
2022-08-09T05:04:09.230Z,61.78
2022-08-09T05:06:36.916Z,62.05
2022-08-09T05:09:03.687Z,62.15
2022-08-09T05:11:35.606Z,62.29
2022-08-09T05:14:06.151Z,62.10
2022-08-09T05:16:58.215Z,62.29
2022-08-09T05:19:25.685Z,62.68
2022-08-09T05:21:55.532Z,62.35
2022-08-09T05:24:24.218Z,62.23
2022-08-09T05:26:51.449Z,62.39
2022-08-09T05:29:22.720Z,62.34
2022-08-09T05:31:57.462Z,62.78
2022-08-09T05:34:30.712Z,62.62
2022-08-09T05:37:05.311Z,62.58
2022-08-09T05:39:43.899Z,62.44
2022-08-09T05:42:20.899Z,62.40
2022-08-09T05:44:51.752Z,62.09
2022-08-09T05:47:23.797Z,62.28
2022-08-09T05:50:24.389Z,62.39
2022-08-09T05:52:44.364Z,62.49
2022-08-09T05:55:20.808Z,62.44
2022-08-09T05:57:51.046Z,62.33
2022-08-09T06:00:28.797Z,62.77
2022-08-09T06:03:01.613Z,62.62
2022-08-09T06:05:57.391Z,62.77
2022-08-09T06:08:19.805Z,62.78
2022-08-09T06:10:55.664Z,62.78
2022-08-09T06:13:23.879Z,62.93
2022-08-09T06:15:51.547Z,63.04
2022-08-09T06:18:20.554Z,62.84
2022-08-09T06:20:56.949Z,62.95
2022-08-09T06:23:58.918Z,63.27
2022-08-09T06:26:21.301Z,63.66
2022-08-09T06:29:00.463Z,63.99
2022-08-09T06:31:40.073Z,63.96
2022-08-09T06:34:19.886Z,64.40
2022-08-09T06:36:49.665Z,64.60
2022-08-09T06:39:24.373Z,64.83
2022-08-09T06:42:11.460Z,64.81
2022-08-09T06:44:38.613Z,65.07
2022-08-09T06:47:05.425Z,65.17
2022-08-09T06:50:12.835Z,65.63
2022-08-09T06:52:23.545Z,65.22
2022-08-09T06:54:52.224Z,65.30
2022-08-09T06:57:20.857Z,65.54
2022-08-09T07:00:55.290Z,65.43
2022-08-09T07:02:56.120Z,65.76
2022-08-09T07:05:24.630Z,65.95
2022-08-09T07:08:11.413Z,65.65
2022-08-09T07:10:39.002Z,65.87
2022-08-09T07:13:27.486Z,65.95
2022-08-09T07:16:38.505Z,65.74
2022-08-09T07:18:39.532Z,65.99
2022-08-09T07:21:08.011Z,66.04
2022-08-09T07:23:36.266Z,66.07
2022-08-09T07:26:04.268Z,66.05
2022-08-09T07:28:34.699Z,65.97
2022-08-09T07:31:04.801Z,65.58
2022-08-09T07:33:52.130Z,65.50
2022-08-09T07:36:19.781Z,65.96
2022-08-09T07:38:54.991Z,65.42
2022-08-09T07:41:25.545Z,65.86
2022-08-09T07:43:56.273Z,65.21
2022-08-09T07:46:26.835Z,65.16
2022-08-09T07:49:00.164Z,65.39
2022-08-09T07:52:04.804Z,64.85
2022-08-09T07:54:15.453Z,65.20
2022-08-09T07:56:54.465Z,64.82
2022-08-09T07:59:34.734Z,65.11
2022-08-09T08:02:09.075Z,64.61
2022-08-09T08:04:37.425Z,64.93
2022-08-09T08:07:57.390Z,64.67
2022-08-09T08:09:55.046Z,64.64
2022-08-09T08:12:35.137Z,64.29
2022-08-09T08:15:04.636Z,63.60
2022-08-09T08:17:52.246Z,63.83
2022-08-09T08:20:29.561Z,63.46
2022-08-09T08:23:06.493Z,62.99
2022-08-09T08:25:50.208Z,62.59
2022-08-09T08:28:25.672Z,62.74
2022-08-09T08:30:58.921Z,62.55
2022-08-09T08:33:25.651Z,62.11
2022-08-09T08:36:08.954Z,62.25
2022-08-09T08:38:38.371Z,61.97
2022-08-09T08:41:07.915Z,61.39
2022-08-09T08:43:36.198Z,61.14
2022-08-09T08:46:24.959Z,60.83
2022-08-09T08:48:54.710Z,61.05
2022-08-09T08:51:24.374Z,60.33
2022-08-09T08:54:03.739Z,59.58
2022-08-09T08:56:35.738Z,58.93
2022-08-09T08:59:19.669Z,58.41
2022-08-09T09:01:52.970Z,58.45
2022-08-09T09:04:31.239Z,58.09
2022-08-09T09:07:08.822Z,57.76
2022-08-09T09:09:58.600Z,57.48
2022-08-09T09:12:29.827Z,57.13
2022-08-09T09:15:01.082Z,56.68
2022-08-09T09:17:48.214Z,56.27
2022-08-09T09:20:16.419Z,56.15
2022-08-09T09:23:01.737Z,55.40
2022-08-09T09:26:02.221Z,54.97
2022-08-09T09:29:03.604Z,55.02
2022-08-09T09:32:04.504Z,54.61
2022-08-09T09:34:22.270Z,54.34
2022-08-09T09:36:53.789Z,54.09
2022-08-09T09:39:23.664Z,53.75
2022-08-09T09:42:23.336Z,53.17
2022-08-09T09:44:57.557Z,53.00
2022-08-09T09:47:24.806Z,52.73
2022-08-09T09:50:14.874Z,52.49
2022-08-09T09:52:56.795Z,51.91
2022-08-09T09:55:31.218Z,51.72
2022-08-09T09:58:15.791Z,51.20
2022-08-09T10:00:54.186Z,50.79
2022-08-09T10:03:57.044Z,50.34
2022-08-09T10:06:38.826Z,50.56
2022-08-09T10:09:22.249Z,50.53
2022-08-09T10:12:11.382Z,50.35
2022-08-09T10:14:39.687Z,50.41
2022-08-09T10:17:39.791Z,49.99
2022-08-09T10:19:59.928Z,50.13
2022-08-09T10:22:33.076Z,49.54
2022-08-09T10:25:03.605Z,49.47
2022-08-09T10:27:44.963Z,49.22
2022-08-09T10:34:04.917Z,48.70
2022-08-09T10:36:00.834Z,48.74
2022-08-09T10:38:54.443Z,48.41
2022-08-09T10:41:16.981Z,47.96
2022-08-09T10:43:59.260Z,48.14
2022-08-09T10:46:57.797Z,47.19
2022-08-09T10:49:51.216Z,47.09
2022-08-09T10:52:42.660Z,47.00
2022-08-09T10:55:22.765Z,46.84
2022-08-09T10:57:52.048Z,47.03
2022-08-09T11:00:37.253Z,45.98
2022-08-09T11:03:27.797Z,45.90
2022-08-09T11:06:16.213Z,46.19
2022-08-09T11:08:47.974Z,45.55
2022-08-09T11:11:19.577Z,45.92
2022-08-09T11:13:50.383Z,45.31
2022-08-09T11:16:39.805Z,44.62
2022-08-09T11:19:10.485Z,45.25
2022-08-09T11:21:57.295Z,44.57
2022-08-09T11:25:08.106Z,43.61
2022-08-09T11:28:02.985Z,44.20
2022-08-09T11:30:33.716Z,44.62
2022-08-09T11:33:05.926Z,43.95
2022-08-09T11:35:56.390Z,43.29
2022-08-09T11:38:32.196Z,43.33
2022-08-09T11:41:38.180Z,42.91
2022-08-09T11:44:07.985Z,43.01
2022-08-09T11:46:54.819Z,42.30
2022-08-09T11:50:54.083Z,42.86
2022-08-09T11:53:59.154Z,41.01
2022-08-09T11:56:41.752Z,41.39
2022-08-09T11:59:30.134Z,41.69
2022-08-09T12:02:34.504Z,41.94
2022-08-09T12:04:47.660Z,42.00
2022-08-09T12:07:17.705Z,41.73
2022-08-09T12:09:50.880Z,41.23
2022-08-09T12:12:20.565Z,41.11
2022-08-09T12:15:03.790Z,40.39
2022-08-09T12:17:43.559Z,41.48
2022-08-09T12:20:21.387Z,41.28
2022-08-09T12:22:56.137Z,40.78
2022-08-09T12:25:32.017Z,40.72
2022-08-09T12:29:10.986Z,40.15
2022-08-09T12:31:58.143Z,40.07
2022-08-09T12:34:11.059Z,40.01
2022-08-09T12:36:58.902Z,39.09
2022-08-09T12:39:42.111Z,39.57
2022-08-09T12:42:16.684Z,39.22
2022-08-09T12:44:46.462Z,39.10
2022-08-09T12:47:23.128Z,38.92
2022-08-09T12:50:09.446Z,38.67
2022-08-09T12:53:17.415Z,38.19
2022-08-09T12:56:12.543Z,38.29
2022-08-09T12:58:33.960Z,37.88
2022-08-09T13:01:04.398Z,37.90
2022-08-09T13:03:53.826Z,37.48
2022-08-09T13:06:48.720Z,36.74
2022-08-09T13:09:21.891Z,37.50
2022-08-09T13:12:02.144Z,37.65
2022-08-09T13:14:41.764Z,37.09
2022-08-09T13:17:44.234Z,37.24
2022-08-09T13:20:14.145Z,36.89
2022-08-09T13:23:02.047Z,36.41
2022-08-09T13:25:42.873Z,36.33
2022-08-09T13:28:18.787Z,36.28
2022-08-09T13:32:14.373Z,36.10
2022-08-09T13:33:53.441Z,36.30
2022-08-09T13:36:38.548Z,36.11
2022-08-09T13:41:51.052Z,35.82
2022-08-09T13:42:03.521Z,35.11
2022-08-09T13:44:31.510Z,35.29
2022-08-09T13:47:29.189Z,35.14
2022-08-09T13:50:01.015Z,35.16
2022-08-09T13:52:29.993Z,35.15
2022-08-09T13:55:00.013Z,34.91
2022-08-09T13:57:37.112Z,35.19
2022-08-09T14:00:13.924Z,35.01
2022-08-09T14:03:02.888Z,35.03
2022-08-09T14:06:00.477Z,34.99
2022-08-09T14:08:22.436Z,35.01
2022-08-09T14:10:52.923Z,34.38
2022-08-09T14:14:15.339Z,34.77
2022-08-09T14:16:28.555Z,34.31
2022-08-09T14:18:58.096Z,34.40
2022-08-09T14:21:29.164Z,33.78
2022-08-09T14:23:57.443Z,33.80
2022-08-09T14:26:32.493Z,32.89
2022-08-09T14:29:02.019Z,33.09
2022-08-09T14:31:49.657Z,32.81
2022-08-09T14:34:17.449Z,32.72
2022-08-09T14:36:55.795Z,32.86
2022-08-09T14:39:45.204Z,32.66
2022-08-09T14:42:09.231Z,33.38
2022-08-09T14:44:48.976Z,32.73
2022-08-09T14:47:42.918Z,32.81
2022-08-09T14:50:11.031Z,32.78
2022-08-09T14:52:37.865Z,32.47
2022-08-09T14:55:06.937Z,33.05
2022-08-09T14:57:43.556Z,32.75
2022-08-09T15:00:11.886Z,32.31
2022-08-09T15:02:38.854Z,31.98
2022-08-09T15:05:07.305Z,32.13
2022-08-09T15:07:35.293Z,31.57
2022-08-09T15:10:11.284Z,31.80
2022-08-09T15:12:44.823Z,31.45
2022-08-09T15:15:12.949Z,30.87
2022-08-09T15:17:41.546Z,31.41
2022-08-09T15:20:15.311Z,31.30
2022-08-09T15:23:02.894Z,30.44
2022-08-09T15:25:45.857Z,30.75
2022-08-09T15:28:27.123Z,30.21
2022-08-09T15:31:08.680Z,30.35
2022-08-09T15:34:31.116Z,30.28
2022-08-09T15:36:29.122Z,30.13
2022-08-09T15:39:00.371Z,30.53
2022-08-09T15:41:31.758Z,29.81
2022-08-09T15:44:02.322Z,30.08
2022-08-09T15:46:33.098Z,30.20
2022-08-09T15:49:22.778Z,29.82
2022-08-09T15:52:04.646Z,30.30
2022-08-09T15:54:44.701Z,30.02
2022-08-09T15:57:19.297Z,30.13
2022-08-09T16:00:29.458Z,30.43
2022-08-09T16:02:57.882Z,30.54
2022-08-09T16:05:47.022Z,30.89
2022-08-09T16:08:29.839Z,30.97
2022-08-09T16:11:21.903Z,30.94
2022-08-09T16:15:04.697Z,30.71
2022-08-09T16:26:34.610Z,30.10
2022-08-09T16:29:10.545Z,30.31
2022-08-09T16:32:17.597Z,29.96
2022-08-09T16:34:56.120Z,30.01
2022-08-09T16:37:17.019Z,29.83
2022-08-09T16:39:48.167Z,29.55
2022-08-09T16:42:29.594Z,29.57
2022-08-09T16:44:56.274Z,28.98
2022-08-09T16:48:39.647Z,28.48
2022-08-09T16:50:29.177Z,28.69
2022-08-09T16:52:57.030Z,28.57
2022-08-09T16:55:24.031Z,28.85
2022-08-09T16:58:10.439Z,29.28
2022-08-09T17:00:41.925Z,29.41
2022-08-09T17:03:21.118Z,29.52
2022-08-09T17:06:07.857Z,29.89
2022-08-09T17:08:44.438Z,30.28
2022-08-09T17:11:40.590Z,30.07
2022-08-09T17:14:25.308Z,30.43
2022-08-09T17:16:56.418Z,30.46
2022-08-09T17:19:27.575Z,30.44
2022-08-09T17:22:14.555Z,30.79
2022-08-09T17:24:47.468Z,30.73
2022-08-09T17:27:21.614Z,31.11
2022-08-09T17:29:48.397Z,31.43
2022-08-09T17:32:20.384Z,30.88
2022-08-09T17:35:01.510Z,31.09
2022-08-09T17:38:11.305Z,31.64
2022-08-09T17:40:26.154Z,31.06
2022-08-09T17:42:59.293Z,31.09
2022-08-09T17:45:37.666Z,30.98
2022-08-09T17:48:17.464Z,31.02
2022-08-09T17:50:48.698Z,30.90
2022-08-09T17:53:23.446Z,30.98
2022-08-09T17:55:54.183Z,31.02
2022-08-09T17:58:22.101Z,31.06
2022-08-09T18:00:54.856Z,31.06
2022-08-09T18:03:24.159Z,31.15
2022-08-09T18:05:52.968Z,31.21
2022-08-09T18:08:21.810Z,31.06
2022-08-09T18:11:02.130Z,30.98
2022-08-09T18:13:40.825Z,31.09
2022-08-09T18:16:29.067Z,31.41
2022-08-09T18:18:57.772Z,31.11
2022-08-09T18:21:26.306Z,31.40
2022-08-09T18:24:09.734Z,31.27
2022-08-09T18:26:46.637Z,31.51
2022-08-09T18:30:42.689Z,31.67
2022-08-09T18:32:07.422Z,32.66
2022-08-09T18:34:35.653Z,32.91
2022-08-09T18:37:10.391Z,33.05
2022-08-09T18:39:53.762Z,33.74
2022-08-09T18:42:21.118Z,33.39
2022-08-09T18:44:55.110Z,34.04
2022-08-09T18:47:24.131Z,33.96
2022-08-09T18:49:54.337Z,34.14
2022-08-09T18:52:28.670Z,34.15
2022-08-09T18:55:02.239Z,35.02
2022-08-09T18:57:42.841Z,35.23
2022-08-09T19:00:16.415Z,34.87
2022-08-09T19:02:46.781Z,35.45
2022-08-09T19:05:20.452Z,35.75
2022-08-09T19:08:09.995Z,36.08
2022-08-09T19:10:39.229Z,35.97
2022-08-09T19:13:17.224Z,36.36
2022-08-09T19:15:49.304Z,36.73
2022-08-09T19:18:33.036Z,36.99
2022-08-09T19:21:01.114Z,37.30
2022-08-09T19:24:37.210Z,36.97
2022-08-09T19:26:16.725Z,37.53
2022-08-09T19:28:49.002Z,37.82
2022-08-09T19:31:16.818Z,37.96
2022-08-09T19:33:43.735Z,37.87
2022-08-09T19:36:11.818Z,38.47
2022-08-09T19:38:40.633Z,38.20
2022-08-09T19:41:13.231Z,38.02
2022-08-09T19:44:01.248Z,38.75
2022-08-09T19:46:35.542Z,38.79
2022-08-09T19:50:06.830Z,38.76
2022-08-09T19:52:03.074Z,38.99
2022-08-09T19:54:29.790Z,38.95
2022-08-09T19:56:58.457Z,39.21
2022-08-09T19:59:57.416Z,39.38
2022-08-09T20:02:14.956Z,39.38
2022-08-09T20:05:02.063Z,39.87
2022-08-09T20:07:58.934Z,39.89
2022-08-09T20:10:28.014Z,40.01
2022-08-09T20:13:02.323Z,40.43
2022-08-09T20:16:34.713Z,40.80
2022-08-09T20:18:18.059Z,41.03
2022-08-09T20:20:47.219Z,41.09
2022-08-09T20:23:23.062Z,41.15
2022-08-09T20:25:53.513Z,41.82
2022-08-09T20:28:24.413Z,41.88
2022-08-09T20:30:59.077Z,41.71
2022-08-09T20:33:28.926Z,41.56
2022-08-09T20:36:06.386Z,42.02
2022-08-09T20:38:47.571Z,41.81
2022-08-09T20:41:20.233Z,42.02
2022-08-09T20:43:58.987Z,42.18
2022-08-09T20:46:42.122Z,42.08
2022-08-09T20:49:11.589Z,42.09
2022-08-09T20:51:41.677Z,42.67
2022-08-09T20:54:12.394Z,42.73
2022-08-09T20:56:43.307Z,42.72
2022-08-09T20:59:13.810Z,42.59
2022-08-09T21:01:50.327Z,42.68
2022-08-09T21:05:54.546Z,42.82
2022-08-09T21:07:12.910Z,43.15
2022-08-09T21:09:56.938Z,42.96
2022-08-09T21:15:17.840Z,43.37
2022-08-09T21:18:23.528Z,43.73
2022-08-09T21:20:38.471Z,43.68
2022-08-09T21:23:09.235Z,43.89
2022-08-09T21:25:55.761Z,43.54
2022-08-09T21:28:36.465Z,44.30
2022-08-09T21:31:17.212Z,44.35
2022-08-09T21:33:52.579Z,44.14
2022-08-09T21:36:27.950Z,44.57
2022-08-09T21:38:57.459Z,44.46
2022-08-09T21:42:04.435Z,44.56
2022-08-09T21:44:32.892Z,44.39
2022-08-09T21:47:04.905Z,44.45
2022-08-09T21:49:40.054Z,44.39
2022-08-09T21:52:15.028Z,44.65
2022-08-09T21:54:46.451Z,44.11
2022-08-09T21:57:37.184Z,44.46
2022-08-09T22:00:17.782Z,44.65
2022-08-09T22:02:58.767Z,44.44
2022-08-09T22:05:33.646Z,44.73
2022-08-09T22:08:05.688Z,44.95
2022-08-09T22:10:32.516Z,44.58
2022-08-09T22:13:07.230Z,44.71
2022-08-09T22:15:38.226Z,44.71
2022-08-09T22:18:11.978Z,45.10
2022-08-09T22:20:40.785Z,44.88
2022-08-09T22:23:10.496Z,45.21
2022-08-09T22:26:05.377Z,45.16
2022-08-09T22:28:29.533Z,45.07
2022-08-09T22:30:59.837Z,45.26
2022-08-09T22:33:37.707Z,45.12
2022-08-09T22:36:13.476Z,45.49
2022-08-09T22:38:46.374Z,45.21
2022-08-09T22:41:13.321Z,45.15
2022-08-09T22:44:00.712Z,45.33
2022-08-09T22:48:18.326Z,45.63
2022-08-09T22:49:13.820Z,45.51
2022-08-09T22:51:49.637Z,45.74
2022-08-09T22:54:23.686Z,45.62
2022-08-09T22:56:56.962Z,45.58
2022-08-09T22:59:58.133Z,45.66
2022-08-09T23:02:14.974Z,45.83
2022-08-09T23:04:43.833Z,46.01
2022-08-09T23:08:27.517Z,46.06
2022-08-09T23:10:27.340Z,46.15
2022-08-09T23:12:54.263Z,46.15
2022-08-09T23:15:21.001Z,46.60
2022-08-09T23:17:47.739Z,46.69
2022-08-09T23:20:14.574Z,46.78
2022-08-09T23:22:41.298Z,46.78
2022-08-09T23:25:08.353Z,46.74
2022-08-09T23:27:35.355Z,46.79
2022-08-09T23:30:02.322Z,46.56
2022-08-09T23:32:29.082Z,47.01
2022-08-09T23:34:55.783Z,46.97
2022-08-09T23:37:25.406Z,46.78
2022-08-09T23:39:52.710Z,47.11
2022-08-09T23:42:19.519Z,47.23
2022-08-09T23:44:46.169Z,47.18
2022-08-09T23:47:12.998Z,47.46
2022-08-09T23:49:39.717Z,47.49
2022-08-09T23:52:06.835Z,47.41
2022-08-09T23:54:33.594Z,47.58
2022-08-09T23:57:02.577Z,47.65
2022-08-09T23:59:50.945Z,47.67
